sensor_id;sensor_type;location;lat;lon;timestamp;temperature;humidity
48551;DHT22;34397;51.176;6.738;2022-11-25T00:01:04;8.20;63.10
48551;DHT22;34397;51.176;6.738;2022-11-25T00:03:36;8.30;63.10
48551;DHT22;34397;51.176;6.738;2022-11-25T00:06:09;8.20;63.10
48551;DHT22;34397;51.176;6.738;2022-11-25T00:08:42;8.30;63.20
48551;DHT22;34397;51.176;6.738;2022-11-25T00:11:16;8.20;63.10
48551;DHT22;34397;51.176;6.738;2022-11-25T00:13:49;8.20;63.10
48551;DHT22;34397;51.176;6.738;2022-11-25T00:16:22;8.20;63.10
48551;DHT22;34397;51.176;6.738;2022-11-25T00:18:55;8.30;63.10
48551;DHT22;34397;51.176;6.738;2022-11-25T00:21:28;8.30;63.10
48551;DHT22;34397;51.176;6.738;2022-11-25T00:24:03;8.30;63.00
48551;DHT22;34397;51.176;6.738;2022-11-25T00:26:36;8.30;63.00
48551;DHT22;34397;51.176;6.738;2022-11-25T00:29:10;8.30;62.90
48551;DHT22;34397;51.176;6.738;2022-11-25T00:31:43;8.20;62.90
48551;DHT22;34397;51.176;6.738;2022-11-25T00:34:15;8.20;63.00
48551;DHT22;34397;51.176;6.738;2022-11-25T00:36:46;8.30;63.00
48551;DHT22;34397;51.176;6.738;2022-11-25T00:39:18;8.30;63.10
48551;DHT22;34397;51.176;6.738;2022-11-25T00:41:53;8.20;63.10
48551;DHT22;34397;51.176;6.738;2022-11-25T00:44:44;8.20;63.10
48551;DHT22;34397;51.176;6.738;2022-11-25T00:47:16;8.20;63.20
48551;DHT22;34397;51.176;6.738;2022-11-25T00:49:49;8.20;63.20
48551;DHT22;34397;51.176;6.738;2022-11-25T00:52:23;8.20;63.30
48551;DHT22;34397;51.176;6.738;2022-11-25T00:54:55;8.20;63.30
48551;DHT22;34397;51.176;6.738;2022-11-25T00:57:27;8.20;63.40
48551;DHT22;34397;51.176;6.738;2022-11-25T01:00:00;8.20;63.40
48551;DHT22;34397;51.176;6.738;2022-11-25T01:02:32;8.20;63.30
48551;DHT22;34397;51.176;6.738;2022-11-25T01:05:04;8.20;63.40
48551;DHT22;34397;51.176;6.738;2022-11-25T01:07:36;8.20;63.40
48551;DHT22;34397;51.176;6.738;2022-11-25T01:10:08;8.20;63.50
48551;DHT22;34397;51.176;6.738;2022-11-25T01:12:40;8.20;63.50
48551;DHT22;34397;51.176;6.738;2022-11-25T01:15:13;8.20;63.40
48551;DHT22;34397;51.176;6.738;2022-11-25T01:17:45;8.20;63.50
48551;DHT22;34397;51.176;6.738;2022-11-25T01:20:16;8.20;63.50
48551;DHT22;34397;51.176;6.738;2022-11-25T01:22:49;8.20;63.30
48551;DHT22;34397;51.176;6.738;2022-11-25T01:25:22;8.20;63.40
48551;DHT22;34397;51.176;6.738;2022-11-25T01:27:54;8.20;63.40
48551;DHT22;34397;51.176;6.738;2022-11-25T01:30:27;8.20;63.30
48551;DHT22;34397;51.176;6.738;2022-11-25T01:32:58;8.30;63.30
48551;DHT22;34397;51.176;6.738;2022-11-25T01:35:30;8.30;63.30
48551;DHT22;34397;51.176;6.738;2022-11-25T01:38:02;8.20;63.20
48551;DHT22;34397;51.176;6.738;2022-11-25T01:40:34;8.30;63.30
48551;DHT22;34397;51.176;6.738;2022-11-25T01:43:09;8.30;63.20
48551;DHT22;34397;51.176;6.738;2022-11-25T01:45:43;8.30;63.20
48551;DHT22;34397;51.176;6.738;2022-11-25T01:48:15;8.30;63.10
48551;DHT22;34397;51.176;6.738;2022-11-25T01:50:50;8.30;63.20
48551;DHT22;34397;51.176;6.738;2022-11-25T01:53:23;8.30;63.20
48551;DHT22;34397;51.176;6.738;2022-11-25T01:55:55;8.30;63.20
48551;DHT22;34397;51.176;6.738;2022-11-25T01:58:31;8.30;63.20
48551;DHT22;34397;51.176;6.738;2022-11-25T02:01:05;8.30;63.20
48551;DHT22;34397;51.176;6.738;2022-11-25T02:03:38;8.30;63.20
48551;DHT22;34397;51.176;6.738;2022-11-25T02:06:13;8.30;63.20
48551;DHT22;34397;51.176;6.738;2022-11-25T02:08:48;8.30;63.20
48551;DHT22;34397;51.176;6.738;2022-11-25T02:11:21;8.30;63.30
48551;DHT22;34397;51.176;6.738;2022-11-25T02:13:56;8.30;63.30
48551;DHT22;34397;51.176;6.738;2022-11-25T02:16:31;8.30;63.20
48551;DHT22;34397;51.176;6.738;2022-11-25T02:19:02;8.30;63.20
48551;DHT22;34397;51.176;6.738;2022-11-25T02:21:35;8.40;63.30
48551;DHT22;34397;51.176;6.738;2022-11-25T02:24:11;8.30;63.30
48551;DHT22;34397;51.176;6.738;2022-11-25T02:26:47;8.40;63.30
48551;DHT22;34397;51.176;6.738;2022-11-25T02:29:18;8.40;63.30
48551;DHT22;34397;51.176;6.738;2022-11-25T02:31:50;8.30;63.20
48551;DHT22;34397;51.176;6.738;2022-11-25T02:34:22;8.40;63.30
48551;DHT22;34397;51.176;6.738;2022-11-25T02:36:54;8.40;63.20
48551;DHT22;34397;51.176;6.738;2022-11-25T02:39:26;8.40;63.20
48551;DHT22;34397;51.176;6.738;2022-11-25T02:41:59;8.40;63.20
48551;DHT22;34397;51.176;6.738;2022-11-25T02:44:31;8.40;63.20
48551;DHT22;34397;51.176;6.738;2022-11-25T02:47:03;8.40;63.20
48551;DHT22;34397;51.176;6.738;2022-11-25T02:49:34;8.50;63.20
48551;DHT22;34397;51.176;6.738;2022-11-25T02:52:06;8.50;63.30
48551;DHT22;34397;51.176;6.738;2022-11-25T02:54:38;8.50;63.10
48551;DHT22;34397;51.176;6.738;2022-11-25T02:57:11;8.50;63.10
48551;DHT22;34397;51.176;6.738;2022-11-25T02:59:42;8.50;63.10
48551;DHT22;34397;51.176;6.738;2022-11-25T03:02:14;8.50;63.10
48551;DHT22;34397;51.176;6.738;2022-11-25T03:04:46;8.50;63.50
48551;DHT22;34397;51.176;6.738;2022-11-25T03:07:17;8.50;63.20
48551;DHT22;34397;51.176;6.738;2022-11-25T03:09:49;8.50;63.20
48551;DHT22;34397;51.176;6.738;2022-11-25T03:12:22;8.50;63.20
48551;DHT22;34397;51.176;6.738;2022-11-25T03:14:54;8.50;63.20
48551;DHT22;34397;51.176;6.738;2022-11-25T03:17:26;8.50;63.20
48551;DHT22;34397;51.176;6.738;2022-11-25T03:19:58;8.50;63.30
48551;DHT22;34397;51.176;6.738;2022-11-25T03:22:30;8.50;63.20
48551;DHT22;34397;51.176;6.738;2022-11-25T03:25:01;8.50;63.30
48551;DHT22;34397;51.176;6.738;2022-11-25T03:27:35;8.50;63.30
48551;DHT22;34397;51.176;6.738;2022-11-25T03:30:07;8.50;63.40
48551;DHT22;34397;51.176;6.738;2022-11-25T03:32:40;8.50;63.20
48551;DHT22;34397;51.176;6.738;2022-11-25T03:35:12;8.50;63.90
48551;DHT22;34397;51.176;6.738;2022-11-25T03:37:44;8.50;63.30
48551;DHT22;34397;51.176;6.738;2022-11-25T03:40:16;8.60;63.40
48551;DHT22;34397;51.176;6.738;2022-11-25T03:42:49;8.50;63.30
48551;DHT22;34397;51.176;6.738;2022-11-25T03:45:21;8.60;63.30
48551;DHT22;34397;51.176;6.738;2022-11-25T03:47:53;8.50;63.30
48551;DHT22;34397;51.176;6.738;2022-11-25T03:50:24;8.50;63.30
48551;DHT22;34397;51.176;6.738;2022-11-25T03:52:56;8.50;63.30
48551;DHT22;34397;51.176;6.738;2022-11-25T03:55:28;8.50;63.30
48551;DHT22;34397;51.176;6.738;2022-11-25T03:58:00;8.60;63.50
48551;DHT22;34397;51.176;6.738;2022-11-25T04:00:32;8.50;63.30
48551;DHT22;34397;51.176;6.738;2022-11-25T04:03:04;8.50;63.40
48551;DHT22;34397;51.176;6.738;2022-11-25T04:05:36;8.50;63.30
48551;DHT22;34397;51.176;6.738;2022-11-25T04:08:07;8.50;63.40
48551;DHT22;34397;51.176;6.738;2022-11-25T04:10:39;8.50;64.10
48551;DHT22;34397;51.176;6.738;2022-11-25T04:13:12;8.50;63.60
48551;DHT22;34397;51.176;6.738;2022-11-25T04:15:43;8.50;63.70
48551;DHT22;34397;51.176;6.738;2022-11-25T04:18:16;8.50;63.80
48551;DHT22;34397;51.176;6.738;2022-11-25T04:20:49;8.50;63.70
48551;DHT22;34397;51.176;6.738;2022-11-25T04:23:20;8.40;63.60
48551;DHT22;34397;51.176;6.738;2022-11-25T04:25:52;8.40;63.70
48551;DHT22;34397;51.176;6.738;2022-11-25T04:28:25;8.40;63.60
48551;DHT22;34397;51.176;6.738;2022-11-25T04:30:56;8.40;63.50
48551;DHT22;34397;51.176;6.738;2022-11-25T04:33:28;8.40;63.60
48551;DHT22;34397;51.176;6.738;2022-11-25T04:36:00;8.40;63.70
48551;DHT22;34397;51.176;6.738;2022-11-25T04:38:32;8.40;63.80
48551;DHT22;34397;51.176;6.738;2022-11-25T04:41:03;8.50;63.90
48551;DHT22;34397;51.176;6.738;2022-11-25T04:43:37;8.50;63.90
48551;DHT22;34397;51.176;6.738;2022-11-25T04:46:08;8.50;64.00
48551;DHT22;34397;51.176;6.738;2022-11-25T04:48:43;8.50;64.00
48551;DHT22;34397;51.176;6.738;2022-11-25T04:51:15;8.50;64.00
48551;DHT22;34397;51.176;6.738;2022-11-25T04:53:46;8.50;64.00
48551;DHT22;34397;51.176;6.738;2022-11-25T04:56:18;8.50;64.10
48551;DHT22;34397;51.176;6.738;2022-11-25T04:58:51;8.40;64.00
48551;DHT22;34397;51.176;6.738;2022-11-25T05:01:41;8.50;64.20
48551;DHT22;34397;51.176;6.738;2022-11-25T05:04:12;8.50;64.20
48551;DHT22;34397;51.176;6.738;2022-11-25T05:06:44;8.50;64.20
48551;DHT22;34397;51.176;6.738;2022-11-25T05:09:16;8.40;64.50
48551;DHT22;34397;51.176;6.738;2022-11-25T05:11:48;8.40;64.30
48551;DHT22;34397;51.176;6.738;2022-11-25T05:14:21;8.40;64.10
48551;DHT22;34397;51.176;6.738;2022-11-25T05:16:54;8.40;64.00
48551;DHT22;34397;51.176;6.738;2022-11-25T05:19:26;8.40;64.20
48551;DHT22;34397;51.176;6.738;2022-11-25T05:21:57;8.40;64.30
48551;DHT22;34397;51.176;6.738;2022-11-25T05:24:29;8.40;64.30
48551;DHT22;34397;51.176;6.738;2022-11-25T05:27:01;8.40;64.50
48551;DHT22;34397;51.176;6.738;2022-11-25T05:29:34;8.40;64.60
48551;DHT22;34397;51.176;6.738;2022-11-25T05:32:06;8.30;64.50
48551;DHT22;34397;51.176;6.738;2022-11-25T05:34:38;8.30;64.50
48551;DHT22;34397;51.176;6.738;2022-11-25T05:37:11;8.30;64.70
48551;DHT22;34397;51.176;6.738;2022-11-25T05:39:44;8.30;64.70
48551;DHT22;34397;51.176;6.738;2022-11-25T05:42:15;8.30;64.80
48551;DHT22;34397;51.176;6.738;2022-11-25T05:44:48;8.30;65.00
48551;DHT22;34397;51.176;6.738;2022-11-25T05:47:20;8.30;65.00
48551;DHT22;34397;51.176;6.738;2022-11-25T05:49:52;8.20;65.10
48551;DHT22;34397;51.176;6.738;2022-11-25T05:52:23;8.20;65.10
48551;DHT22;34397;51.176;6.738;2022-11-25T05:54:55;8.30;65.30
48551;DHT22;34397;51.176;6.738;2022-11-25T05:57:27;8.20;65.40
48551;DHT22;34397;51.176;6.738;2022-11-25T06:00:00;8.20;65.30
48551;DHT22;34397;51.176;6.738;2022-11-25T06:02:32;8.20;65.30
48551;DHT22;34397;51.176;6.738;2022-11-25T06:05:03;8.20;65.50
48551;DHT22;34397;51.176;6.738;2022-11-25T06:07:35;8.20;65.30
48551;DHT22;34397;51.176;6.738;2022-11-25T06:10:07;8.20;65.40
48551;DHT22;34397;51.176;6.738;2022-11-25T06:12:39;8.20;65.50
48551;DHT22;34397;51.176;6.738;2022-11-25T06:15:12;8.20;65.70
48551;DHT22;34397;51.176;6.738;2022-11-25T06:17:44;8.20;65.80
48551;DHT22;34397;51.176;6.738;2022-11-25T06:20:16;8.20;65.80
48551;DHT22;34397;51.176;6.738;2022-11-25T06:22:48;8.20;65.80
48551;DHT22;34397;51.176;6.738;2022-11-25T06:25:19;8.20;65.80
48551;DHT22;34397;51.176;6.738;2022-11-25T06:27:51;8.20;66.00
48551;DHT22;34397;51.176;6.738;2022-11-25T06:30:24;8.20;66.10
48551;DHT22;34397;51.176;6.738;2022-11-25T06:32:58;8.20;66.10
48551;DHT22;34397;51.176;6.738;2022-11-25T06:35:30;8.30;66.20
48551;DHT22;34397;51.176;6.738;2022-11-25T06:38:01;8.20;66.10
48551;DHT22;34397;51.176;6.738;2022-11-25T06:40:33;8.30;66.30
48551;DHT22;34397;51.176;6.738;2022-11-25T06:43:05;8.30;66.30
48551;DHT22;34397;51.176;6.738;2022-11-25T06:45:38;8.30;66.20
48551;DHT22;34397;51.176;6.738;2022-11-25T06:48:09;8.20;66.10
48551;DHT22;34397;51.176;6.738;2022-11-25T06:50:41;8.20;66.00
48551;DHT22;34397;51.176;6.738;2022-11-25T06:53:13;8.20;66.00
48551;DHT22;34397;51.176;6.738;2022-11-25T06:55:44;8.20;66.00
48551;DHT22;34397;51.176;6.738;2022-11-25T06:58:16;8.20;66.00
48551;DHT22;34397;51.176;6.738;2022-11-25T07:00:49;8.20;66.10
48551;DHT22;34397;51.176;6.738;2022-11-25T07:03:21;8.20;66.00
48551;DHT22;34397;51.176;6.738;2022-11-25T07:05:54;8.20;66.20
48551;DHT22;34397;51.176;6.738;2022-11-25T07:08:26;8.10;66.00
48551;DHT22;34397;51.176;6.738;2022-11-25T07:11:00;8.10;66.20
48551;DHT22;34397;51.176;6.738;2022-11-25T07:13:32;8.10;66.30
48551;DHT22;34397;51.176;6.738;2022-11-25T07:16:06;8.00;66.30
48551;DHT22;34397;51.176;6.738;2022-11-25T07:18:38;8.00;66.50
48551;DHT22;34397;51.176;6.738;2022-11-25T07:21:12;8.00;66.60
48551;DHT22;34397;51.176;6.738;2022-11-25T07:23:45;7.90;66.80
48551;DHT22;34397;51.176;6.738;2022-11-25T07:26:18;7.90;67.50
48551;DHT22;34397;51.176;6.738;2022-11-25T07:28:52;7.90;67.20
48551;DHT22;34397;51.176;6.738;2022-11-25T07:31:26;7.80;67.30
48551;DHT22;34397;51.176;6.738;2022-11-25T07:33:59;7.80;67.30
48551;DHT22;34397;51.176;6.738;2022-11-25T07:36:33;7.80;67.20
48551;DHT22;34397;51.176;6.738;2022-11-25T07:39:05;7.70;67.10
48551;DHT22;34397;51.176;6.738;2022-11-25T07:41:38;7.70;67.30
48551;DHT22;34397;51.176;6.738;2022-11-25T07:44:12;7.70;67.30
48551;DHT22;34397;51.176;6.738;2022-11-25T07:46:46;7.70;67.30
48551;DHT22;34397;51.176;6.738;2022-11-25T07:49:19;7.70;67.40
48551;DHT22;34397;51.176;6.738;2022-11-25T07:51:54;7.60;67.40
48551;DHT22;34397;51.176;6.738;2022-11-25T07:54:29;7.60;67.40
48551;DHT22;34397;51.176;6.738;2022-11-25T07:57:02;7.60;67.60
48551;DHT22;34397;51.176;6.738;2022-11-25T07:59:34;7.60;67.90
48551;DHT22;34397;51.176;6.738;2022-11-25T08:02:11;7.50;67.90
48551;DHT22;34397;51.176;6.738;2022-11-25T08:04:43;7.60;68.30
48551;DHT22;34397;51.176;6.738;2022-11-25T08:07:15;7.60;68.40
48551;DHT22;34397;51.176;6.738;2022-11-25T08:09:46;7.60;68.70
48551;DHT22;34397;51.176;6.738;2022-11-25T08:12:18;7.60;68.80
48551;DHT22;34397;51.176;6.738;2022-11-25T08:14:50;7.60;69.30
48551;DHT22;34397;51.176;6.738;2022-11-25T08:17:23;7.60;69.20
48551;DHT22;34397;51.176;6.738;2022-11-25T08:19:54;7.60;68.90
48551;DHT22;34397;51.176;6.738;2022-11-25T08:22:26;7.60;68.70
48551;DHT22;34397;51.176;6.738;2022-11-25T08:24:58;7.60;68.70
48551;DHT22;34397;51.176;6.738;2022-11-25T08:27:30;7.60;68.60
48551;DHT22;34397;51.176;6.738;2022-11-25T08:30:02;7.60;69.00
48551;DHT22;34397;51.176;6.738;2022-11-25T08:32:36;7.60;68.60
48551;DHT22;34397;51.176;6.738;2022-11-25T08:35:08;7.60;68.60
48551;DHT22;34397;51.176;6.738;2022-11-25T08:37:40;7.60;68.50
48551;DHT22;34397;51.176;6.738;2022-11-25T08:40:12;7.60;68.50
48551;DHT22;34397;51.176;6.738;2022-11-25T08:42:44;7.60;68.50
48551;DHT22;34397;51.176;6.738;2022-11-25T08:45:16;7.60;68.50
48551;DHT22;34397;51.176;6.738;2022-11-25T08:47:49;7.60;68.50
48551;DHT22;34397;51.176;6.738;2022-11-25T08:50:21;7.60;68.50
48551;DHT22;34397;51.176;6.738;2022-11-25T08:52:53;7.60;68.60
48551;DHT22;34397;51.176;6.738;2022-11-25T08:55:26;7.70;68.60
48551;DHT22;34397;51.176;6.738;2022-11-25T08:57:58;7.70;68.60
48551;DHT22;34397;51.176;6.738;2022-11-25T09:00:30;7.60;68.60
48551;DHT22;34397;51.176;6.738;2022-11-25T09:03:03;7.70;68.70
48551;DHT22;34397;51.176;6.738;2022-11-25T09:05:37;7.70;69.00
48551;DHT22;34397;51.176;6.738;2022-11-25T09:08:10;7.80;69.20
48551;DHT22;34397;51.176;6.738;2022-11-25T09:10:42;7.80;69.10
48551;DHT22;34397;51.176;6.738;2022-11-25T09:13:14;7.80;69.00
48551;DHT22;34397;51.176;6.738;2022-11-25T09:15:45;7.80;68.80
48551;DHT22;34397;51.176;6.738;2022-11-25T09:18:19;7.90;68.90
48551;DHT22;34397;51.176;6.738;2022-11-25T09:20:55;7.90;68.90
48551;DHT22;34397;51.176;6.738;2022-11-25T09:23:27;7.90;68.80
48551;DHT22;34397;51.176;6.738;2022-11-25T09:25:59;7.90;68.80
48551;DHT22;34397;51.176;6.738;2022-11-25T09:28:31;7.90;68.70
48551;DHT22;34397;51.176;6.738;2022-11-25T09:31:06;8.00;69.00
48551;DHT22;34397;51.176;6.738;2022-11-25T09:33:39;8.10;69.30
48551;DHT22;34397;51.176;6.738;2022-11-25T09:36:12;8.10;69.40
48551;DHT22;34397;51.176;6.738;2022-11-25T09:38:44;8.20;69.30
48551;DHT22;34397;51.176;6.738;2022-11-25T09:41:19;8.30;69.10
48551;DHT22;34397;51.176;6.738;2022-11-25T09:44:19;8.30;69.00
48551;DHT22;34397;51.176;6.738;2022-11-25T09:47:15;8.40;68.90
48551;DHT22;34397;51.176;6.738;2022-11-25T09:49:56;8.40;68.80
48551;DHT22;34397;51.176;6.738;2022-11-25T09:52:35;8.50;68.70
48551;DHT22;34397;51.176;6.738;2022-11-25T09:55:12;8.50;68.70
48551;DHT22;34397;51.176;6.738;2022-11-25T09:57:50;8.60;68.70
48551;DHT22;34397;51.176;6.738;2022-11-25T10:00:36;8.60;68.80
48551;DHT22;34397;51.176;6.738;2022-11-25T10:03:12;8.70;68.80
48551;DHT22;34397;51.176;6.738;2022-11-25T10:05:50;8.70;68.70
48551;DHT22;34397;51.176;6.738;2022-11-25T10:08:26;8.80;68.60
48551;DHT22;34397;51.176;6.738;2022-11-25T10:11:06;8.80;68.50
48551;DHT22;34397;51.176;6.738;2022-11-25T10:13:48;8.90;68.40
48551;DHT22;34397;51.176;6.738;2022-11-25T10:16:27;8.90;68.00
48551;DHT22;34397;51.176;6.738;2022-11-25T10:19:05;9.00;67.90
48551;DHT22;34397;51.176;6.738;2022-11-25T10:21:43;9.00;67.90
48551;DHT22;34397;51.176;6.738;2022-11-25T10:24:16;9.10;67.70
48551;DHT22;34397;51.176;6.738;2022-11-25T10:26:52;9.10;67.70
48551;DHT22;34397;51.176;6.738;2022-11-25T10:29:29;9.10;68.30
48551;DHT22;34397;51.176;6.738;2022-11-25T10:32:17;9.20;67.70
48551;DHT22;34397;51.176;6.738;2022-11-25T10:34:53;9.30;68.10
48551;DHT22;34397;51.176;6.738;2022-11-25T10:37:29;9.40;67.10
48551;DHT22;34397;51.176;6.738;2022-11-25T10:40:04;9.60;67.00
48551;DHT22;34397;51.176;6.738;2022-11-25T10:42:37;9.70;67.10
48551;DHT22;34397;51.176;6.738;2022-11-25T10:45:09;9.80;67.10
48551;DHT22;34397;51.176;6.738;2022-11-25T10:47:47;10.00;66.50
48551;DHT22;34397;51.176;6.738;2022-11-25T10:50:28;10.10;66.20
48551;DHT22;34397;51.176;6.738;2022-11-25T10:53:09;10.30;66.30
48551;DHT22;34397;51.176;6.738;2022-11-25T10:55:54;10.50;66.20
48551;DHT22;34397;51.176;6.738;2022-11-25T10:58:29;10.80;66.40
48551;DHT22;34397;51.176;6.738;2022-11-25T11:01:03;11.20;64.20
48551;DHT22;34397;51.176;6.738;2022-11-25T11:03:38;11.50;63.00
48551;DHT22;34397;51.176;6.738;2022-11-25T11:09:03;12.00;60.50
48551;DHT22;34397;51.176;6.738;2022-11-25T11:11:36;12.30;60.60
48551;DHT22;34397;51.176;6.738;2022-11-25T11:14:18;12.50;60.80
48551;DHT22;34397;51.176;6.738;2022-11-25T11:16:51;12.80;59.00
48551;DHT22;34397;51.176;6.738;2022-11-25T11:19:24;12.90;58.20
48551;DHT22;34397;51.176;6.738;2022-11-25T11:21:57;13.10;59.30
48551;DHT22;34397;51.176;6.738;2022-11-25T11:24:46;13.30;58.20
48551;DHT22;34397;51.176;6.738;2022-11-25T11:27:20;13.60;56.90
48551;DHT22;34397;51.176;6.738;2022-11-25T11:29:55;13.80;55.90
48551;DHT22;34397;51.176;6.738;2022-11-25T11:32:39;13.90;55.90
48551;DHT22;34397;51.176;6.738;2022-11-25T11:35:15;14.00;54.90
48551;DHT22;34397;51.176;6.738;2022-11-25T11:37:50;14.20;55.80
48551;DHT22;34397;51.176;6.738;2022-11-25T11:40:26;14.40;53.80
48551;DHT22;34397;51.176;6.738;2022-11-25T11:43:10;14.50;52.20
48551;DHT22;34397;51.176;6.738;2022-11-25T11:45:54;14.60;52.60
48551;DHT22;34397;51.176;6.738;2022-11-25T11:48:31;14.50;51.70
48551;DHT22;34397;51.176;6.738;2022-11-25T11:51:12;14.40;51.50
48551;DHT22;34397;51.176;6.738;2022-11-25T11:53:51;14.20;51.90
48551;DHT22;34397;51.176;6.738;2022-11-25T11:56:32;14.00;51.60
48551;DHT22;34397;51.176;6.738;2022-11-25T11:59:11;13.80;52.50
48551;DHT22;34397;51.176;6.738;2022-11-25T12:02:03;13.70;53.10
48551;DHT22;34397;51.176;6.738;2022-11-25T12:04:45;13.70;53.70
48551;DHT22;34397;51.176;6.738;2022-11-25T12:07:25;13.80;54.60
48551;DHT22;34397;51.176;6.738;2022-11-25T12:10:03;14.00;54.70
48551;DHT22;34397;51.176;6.738;2022-11-25T12:12:41;14.30;53.80
48551;DHT22;34397;51.176;6.738;2022-11-25T12:15:18;14.50;53.00
48551;DHT22;34397;51.176;6.738;2022-11-25T12:17:53;14.80;52.00
48551;DHT22;34397;51.176;6.738;2022-11-25T12:20:31;15.10;52.10
48551;DHT22;34397;51.176;6.738;2022-11-25T12:23:08;15.40;51.50
48551;DHT22;34397;51.176;6.738;2022-11-25T12:25:43;15.80;51.30
48551;DHT22;34397;51.176;6.738;2022-11-25T12:28:18;16.00;51.60
48551;DHT22;34397;51.176;6.738;2022-11-25T12:30:55;16.20;49.50
48551;DHT22;34397;51.176;6.738;2022-11-25T12:33:33;16.30;46.80
48551;DHT22;34397;51.176;6.738;2022-11-25T12:36:11;16.20;47.90
48551;DHT22;34397;51.176;6.738;2022-11-25T12:38:46;16.20;48.10
48551;DHT22;34397;51.176;6.738;2022-11-25T12:41:26;16.10;47.90
48551;DHT22;34397;51.176;6.738;2022-11-25T12:44:04;16.30;47.90
48551;DHT22;34397;51.176;6.738;2022-11-25T12:46:38;16.40;45.40
48551;DHT22;34397;51.176;6.738;2022-11-25T12:49:14;16.30;46.20
48551;DHT22;34397;51.176;6.738;2022-11-25T12:51:56;16.40;47.30
48551;DHT22;34397;51.176;6.738;2022-11-25T12:54:37;16.50;46.40
48551;DHT22;34397;51.176;6.738;2022-11-25T12:57:21;16.60;45.40
48551;DHT22;34397;51.176;6.738;2022-11-25T13:00:03;16.60;46.20
48551;DHT22;34397;51.176;6.738;2022-11-25T13:02:45;16.60;45.10
48551;DHT22;34397;51.176;6.738;2022-11-25T13:08:30;16.50;44.30
48551;DHT22;34397;51.176;6.738;2022-11-25T13:11:16;16.30;45.30
48551;DHT22;34397;51.176;6.738;2022-11-25T13:13:58;16.20;46.10
48551;DHT22;34397;51.176;6.738;2022-11-25T13:16:35;16.10;46.30
48551;DHT22;34397;51.176;6.738;2022-11-25T13:19:07;16.10;45.80
48551;DHT22;34397;51.176;6.738;2022-11-25T13:21:54;16.00;46.00
48551;DHT22;34397;51.176;6.738;2022-11-25T13:24:28;15.90;46.10
48551;DHT22;34397;51.176;6.738;2022-11-25T13:27:01;16.00;45.50
48551;DHT22;34397;51.176;6.738;2022-11-25T13:32:38;16.10;45.60
48551;DHT22;34397;51.176;6.738;2022-11-25T13:41:22;16.30;46.00
48551;DHT22;34397;51.176;6.738;2022-11-25T13:43:56;16.30;45.20
48551;DHT22;34397;51.176;6.738;2022-11-25T13:46:33;16.30;45.40
48551;DHT22;34397;51.176;6.738;2022-11-25T13:49:20;16.30;44.10
48551;DHT22;34397;51.176;6.738;2022-11-25T13:52:27;16.30;45.00
48551;DHT22;34397;51.176;6.738;2022-11-25T13:55:05;16.20;44.90
48551;DHT22;34397;51.176;6.738;2022-11-25T13:57:40;16.10;45.10
48551;DHT22;34397;51.176;6.738;2022-11-25T14:06:31;15.90;45.50
48551;DHT22;34397;51.176;6.738;2022-11-25T14:09:11;15.80;45.80
48551;DHT22;34397;51.176;6.738;2022-11-25T14:14:59;15.70;46.10
48551;DHT22;34397;51.176;6.738;2022-11-25T14:17:43;15.60;46.10
48551;DHT22;34397;51.176;6.738;2022-11-25T14:20:37;15.40;45.90
48551;DHT22;34397;51.176;6.738;2022-11-25T14:26:16;15.10;46.40
48551;DHT22;34397;51.176;6.738;2022-11-25T14:28:55;14.90;46.70
48551;DHT22;34397;51.176;6.738;2022-11-25T14:31:31;14.60;47.00
48551;DHT22;34397;51.176;6.738;2022-11-25T14:34:09;14.50;47.20
48551;DHT22;34397;51.176;6.738;2022-11-25T14:36:44;14.40;47.70
48551;DHT22;34397;51.176;6.738;2022-11-25T14:39:22;14.20;47.80
48551;DHT22;34397;51.176;6.738;2022-11-25T14:41:57;14.10;48.50
48551;DHT22;34397;51.176;6.738;2022-11-25T14:44:33;14.00;48.60
48551;DHT22;34397;51.176;6.738;2022-11-25T14:47:07;13.90;49.10
48551;DHT22;34397;51.176;6.738;2022-11-25T14:49:45;13.70;49.10
48551;DHT22;34397;51.176;6.738;2022-11-25T14:52:18;13.60;49.40
48551;DHT22;34397;51.176;6.738;2022-11-25T14:54:54;13.50;49.70
48551;DHT22;34397;51.176;6.738;2022-11-25T14:57:28;13.40;50.10
48551;DHT22;34397;51.176;6.738;2022-11-25T15:00:02;13.30;50.30
48551;DHT22;34397;51.176;6.738;2022-11-25T15:02:38;13.20;50.30
48551;DHT22;34397;51.176;6.738;2022-11-25T15:05:15;13.20;50.50
48551;DHT22;34397;51.176;6.738;2022-11-25T15:07:56;13.10;50.80
48551;DHT22;34397;51.176;6.738;2022-11-25T15:10:32;13.00;51.10
48551;DHT22;34397;51.176;6.738;2022-11-25T15:13:11;12.90;51.40
48551;DHT22;34397;51.176;6.738;2022-11-25T15:15:52;12.80;51.40
48551;DHT22;34397;51.176;6.738;2022-11-25T15:18:25;12.70;51.60
48551;DHT22;34397;51.176;6.738;2022-11-25T15:20:57;12.60;52.00
48551;DHT22;34397;51.176;6.738;2022-11-25T15:23:30;12.50;52.30
48551;DHT22;34397;51.176;6.738;2022-11-25T15:26:14;12.40;52.70
48551;DHT22;34397;51.176;6.738;2022-11-25T15:28:52;12.30;52.70
48551;DHT22;34397;51.176;6.738;2022-11-25T15:31:25;12.20;53.00
48551;DHT22;34397;51.176;6.738;2022-11-25T15:34:00;12.20;53.30
48551;DHT22;34397;51.176;6.738;2022-11-25T15:36:33;12.10;53.30
48551;DHT22;34397;51.176;6.738;2022-11-25T15:39:15;12.00;53.50
48551;DHT22;34397;51.176;6.738;2022-11-25T15:41:55;12.00;53.70
48551;DHT22;34397;51.176;6.738;2022-11-25T15:44:34;11.90;53.90
48551;DHT22;34397;51.176;6.738;2022-11-25T15:47:14;11.80;54.00
48551;DHT22;34397;51.176;6.738;2022-11-25T15:49:56;11.70;54.20
48551;DHT22;34397;51.176;6.738;2022-11-25T15:52:30;11.70;54.70
48551;DHT22;34397;51.176;6.738;2022-11-25T15:55:05;11.60;54.40
48551;DHT22;34397;51.176;6.738;2022-11-25T15:57:39;11.60;53.70
48551;DHT22;34397;51.176;6.738;2022-11-25T16:00:12;11.50;53.60
48551;DHT22;34397;51.176;6.738;2022-11-25T16:02:49;11.50;54.30
48551;DHT22;34397;51.176;6.738;2022-11-25T16:05:29;11.50;55.20
48551;DHT22;34397;51.176;6.738;2022-11-25T16:11:09;11.40;55.70
48551;DHT22;34397;51.176;6.738;2022-11-25T16:13:46;11.30;55.10
48551;DHT22;34397;51.176;6.738;2022-11-25T16:16:21;11.30;55.90
48551;DHT22;34397;51.176;6.738;2022-11-25T16:19:16;11.30;56.10
48551;DHT22;34397;51.176;6.738;2022-11-25T16:21:50;11.20;56.30
48551;DHT22;34397;51.176;6.738;2022-11-25T16:24:26;11.20;55.60
48551;DHT22;34397;51.176;6.738;2022-11-25T16:27:02;11.20;56.00
48551;DHT22;34397;51.176;6.738;2022-11-25T16:29:37;11.10;56.70
48551;DHT22;34397;51.176;6.738;2022-11-25T16:32:11;11.10;56.70
48551;DHT22;34397;51.176;6.738;2022-11-25T16:34:44;11.00;56.60
48551;DHT22;34397;51.176;6.738;2022-11-25T16:37:16;11.00;57.40
48551;DHT22;34397;51.176;6.738;2022-11-25T16:39:48;10.90;57.40
48551;DHT22;34397;51.176;6.738;2022-11-25T16:42:20;10.80;57.70
48551;DHT22;34397;51.176;6.738;2022-11-25T16:44:53;10.90;57.80
48551;DHT22;34397;51.176;6.738;2022-11-25T16:47:25;10.80;57.50
48551;DHT22;34397;51.176;6.738;2022-11-25T16:49:57;10.70;57.70
48551;DHT22;34397;51.176;6.738;2022-11-25T16:52:28;10.70;57.70
48551;DHT22;34397;51.176;6.738;2022-11-25T16:55:00;10.70;57.40
48551;DHT22;34397;51.176;6.738;2022-11-25T16:57:32;10.70;58.40